sensor_id;sensor_type;location;lat;lon;timestamp;noise_LAeq;noise_LA_min;noise_LA_max;noise_LA01;noise_LA95
45964;Laerm;31671;48.092;11.842;2023-12-22T00:01:08;32.41;27.90;51.98;;
45964;Laerm;31671;48.092;11.842;2023-12-22T00:03:34;36.05;28.00;61.01;;
45964;Laerm;31671;48.092;11.842;2023-12-22T00:06:00;34.85;27.87;56.36;;
45964;Laerm;31671;48.092;11.842;2023-12-22T00:08:25;35.45;27.63;57.41;;
45964;Laerm;31671;48.092;11.842;2023-12-22T00:10:51;43.73;27.69;67.14;;
45964;Laerm;31671;48.092;11.842;2023-12-22T00:13:17;31.35;27.75;51.78;;
45964;Laerm;31671;48.092;11.842;2023-12-22T00:15:42;43.12;28.49;63.74;;
45964;Laerm;31671;48.092;11.842;2023-12-22T00:18:08;46.92;28.99;71.13;;
45964;Laerm;31671;48.092;11.842;2023-12-22T00:20:34;50.22;28.63;73.66;;
45964;Laerm;31671;48.092;11.842;2023-12-22T00:23:00;43.52;28.39;65.31;;
45964;Laerm;31671;48.092;11.842;2023-12-22T00:25:25;35.00;27.75;56.30;;
45964;Laerm;31671;48.092;11.842;2023-12-22T00:27:51;33.73;27.92;55.90;;
45964;Laerm;31671;48.092;11.842;2023-12-22T00:30:17;33.61;27.63;57.26;;
45964;Laerm;31671;48.092;11.842;2023-12-22T00:32:43;34.16;27.72;59.44;;
45964;Laerm;31671;48.092;11.842;2023-12-22T00:35:08;29.49;27.89;47.62;;
45964;Laerm;31671;48.092;11.842;2023-12-22T00:37:34;30.54;27.66;52.21;;
45964;Laerm;31671;48.092;11.842;2023-12-22T00:40:00;29.39;27.78;45.05;;
45964;Laerm;31671;48.092;11.842;2023-12-22T00:42:26;29.78;27.83;46.17;;
45964;Laerm;31671;48.092;11.842;2023-12-22T00:44:51;29.17;27.73;32.87;;
45964;Laerm;31671;48.092;11.842;2023-12-22T00:47:17;29.18;27.80;34.45;;
45964;Laerm;31671;48.092;11.842;2023-12-22T00:49:43;29.32;27.96;35.13;;
45964;Laerm;31671;48.092;11.842;2023-12-22T00:52:08;29.12;27.76;33.73;;
45964;Laerm;31671;48.092;11.842;2023-12-22T00:54:34;29.31;27.72;37.97;;
45964;Laerm;31671;48.092;11.842;2023-12-22T00:57:00;29.26;27.85;37.55;;
45964;Laerm;31671;48.092;11.842;2023-12-22T00:59:26;29.33;27.57;41.51;;
45964;Laerm;31671;48.092;11.842;2023-12-22T01:01:51;29.28;27.54;43.69;;
45964;Laerm;31671;48.092;11.842;2023-12-22T01:04:17;29.31;27.65;41.20;;
45964;Laerm;31671;48.092;11.842;2023-12-22T01:06:42;29.25;27.64;39.66;;
45964;Laerm;31671;48.092;11.842;2023-12-22T01:09:08;29.23;27.81;42.61;;
45964;Laerm;31671;48.092;11.842;2023-12-22T01:11:34;29.13;27.73;34.31;;
45964;Laerm;31671;48.092;11.842;2023-12-22T01:14:00;39.06;27.57;67.36;;
45964;Laerm;31671;48.092;11.842;2023-12-22T01:16:25;29.48;27.72;41.45;;
45964;Laerm;31671;48.092;11.842;2023-12-22T01:18:51;29.30;27.86;42.96;;
45964;Laerm;31671;48.092;11.842;2023-12-22T01:21:17;29.26;27.89;43.93;;
45964;Laerm;31671;48.092;11.842;2023-12-22T01:23:43;29.40;27.56;45.63;;
45964;Laerm;31671;48.092;11.842;2023-12-22T01:26:08;29.49;27.84;43.37;;
45964;Laerm;31671;48.092;11.842;2023-12-22T01:28:34;29.15;27.82;32.57;;
45964;Laerm;31671;48.092;11.842;2023-12-22T01:31:00;30.30;27.84;56.46;;
45964;Laerm;31671;48.092;11.842;2023-12-22T01:33:26;30.70;27.75;55.44;;
45964;Laerm;31671;48.092;11.842;2023-12-22T01:35:51;29.37;27.88;44.17;;
45964;Laerm;31671;48.092;11.842;2023-12-22T01:38:17;29.68;27.67;46.50;;
45964;Laerm;31671;48.092;11.842;2023-12-22T01:40:43;30.74;27.76;54.94;;
45964;Laerm;31671;48.092;11.842;2023-12-22T01:43:09;32.83;27.59;63.82;;
45964;Laerm;31671;48.092;11.842;2023-12-22T01:45:35;30.43;27.75;53.57;;
45964;Laerm;31671;48.092;11.842;2023-12-22T01:48:01;29.91;27.56;49.88;;
45964;Laerm;31671;48.092;11.842;2023-12-22T01:50:26;30.18;27.69;49.96;;
45964;Laerm;31671;48.092;11.842;2023-12-22T01:52:52;32.15;27.73;55.56;;
45964;Laerm;31671;48.092;11.842;2023-12-22T01:55:18;31.63;28.01;56.20;;
45964;Laerm;31671;48.092;11.842;2023-12-22T01:57:44;37.90;27.92;65.88;;
45964;Laerm;31671;48.092;11.842;2023-12-22T02:00:10;29.78;27.53;48.56;;
45964;Laerm;31671;48.092;11.842;2023-12-22T02:02:39;30.92;27.83;55.98;;
45964;Laerm;31671;48.092;11.842;2023-12-22T02:05:05;29.09;27.52;35.05;;
45964;Laerm;31671;48.092;11.842;2023-12-22T02:07:32;29.38;27.77;44.61;;
45964;Laerm;31671;48.092;11.842;2023-12-22T02:09:58;29.36;27.85;49.78;;
45964;Laerm;31671;48.092;11.842;2023-12-22T02:12:23;29.19;27.71;38.14;;
45964;Laerm;31671;48.092;11.842;2023-12-22T02:14:49;31.09;27.74;57.15;;
45964;Laerm;31671;48.092;11.842;2023-12-22T02:17:25;30.22;27.75;50.12;;
45964;Laerm;31671;48.092;11.842;2023-12-22T02:19:51;29.25;27.79;39.68;;
45964;Laerm;31671;48.092;11.842;2023-12-22T02:22:18;29.24;27.73;37.00;;
45964;Laerm;31671;48.092;11.842;2023-12-22T02:24:44;29.14;27.87;34.99;;
45964;Laerm;31671;48.092;11.842;2023-12-22T02:27:14;31.62;27.71;59.62;;
45964;Laerm;31671;48.092;11.842;2023-12-22T02:29:43;32.52;27.78;55.42;;
45964;Laerm;31671;48.092;11.842;2023-12-22T02:32:12;29.67;27.80;46.07;;
45964;Laerm;31671;48.092;11.842;2023-12-22T02:34:39;43.11;27.77;70.22;;
45964;Laerm;31671;48.092;11.842;2023-12-22T02:37:07;29.16;27.62;42.19;;
45964;Laerm;31671;48.092;11.842;2023-12-22T02:39:33;36.93;27.71;59.54;;
45964;Laerm;31671;48.092;11.842;2023-12-22T02:41:59;29.30;27.50;41.80;;
45964;Laerm;31671;48.092;11.842;2023-12-22T02:44:25;29.31;27.67;36.55;;
45964;Laerm;31671;48.092;11.842;2023-12-22T02:46:51;29.04;27.63;33.02;;
45964;Laerm;31671;48.092;11.842;2023-12-22T02:49:17;29.16;27.57;36.06;;
45964;Laerm;31671;48.092;11.842;2023-12-22T02:51:42;29.08;27.45;35.48;;
45964;Laerm;31671;48.092;11.842;2023-12-22T02:54:08;29.39;27.72;47.64;;
45964;Laerm;31671;48.092;11.842;2023-12-22T02:56:34;31.52;27.68;61.89;;
45964;Laerm;31671;48.092;11.842;2023-12-22T02:58:59;29.02;27.68;34.47;;
45964;Laerm;31671;48.092;11.842;2023-12-22T03:01:25;29.34;27.73;44.60;;
45964;Laerm;31671;48.092;11.842;2023-12-22T03:03:51;29.05;27.72;37.98;;
45964;Laerm;31671;48.092;11.842;2023-12-22T03:06:16;29.20;27.74;45.28;;
45964;Laerm;31671;48.092;11.842;2023-12-22T03:08:42;29.10;27.63;33.66;;
45964;Laerm;31671;48.092;11.842;2023-12-22T03:11:08;29.04;27.69;31.37;;
45964;Laerm;31671;48.092;11.842;2023-12-22T03:13:33;29.18;27.59;36.48;;
45964;Laerm;31671;48.092;11.842;2023-12-22T03:15:59;29.91;27.82;36.04;;
45964;Laerm;31671;48.092;11.842;2023-12-22T03:18:25;29.20;27.74;32.95;;
45964;Laerm;31671;48.092;11.842;2023-12-22T03:20:50;29.37;27.67;37.04;;
45964;Laerm;31671;48.092;11.842;2023-12-22T03:23:16;29.35;27.83;33.64;;
45964;Laerm;31671;48.092;11.842;2023-12-22T03:25:41;29.31;27.79;34.23;;
45964;Laerm;31671;48.092;11.842;2023-12-22T03:28:07;29.42;27.68;34.51;;
45964;Laerm;31671;48.092;11.842;2023-12-22T03:30:33;29.17;27.69;37.42;;
45964;Laerm;31671;48.092;11.842;2023-12-22T03:32:58;29.15;27.60;33.74;;
45964;Laerm;31671;48.092;11.842;2023-12-22T03:35:24;29.28;27.58;44.19;;
45964;Laerm;31671;48.092;11.842;2023-12-22T03:37:50;29.24;27.79;34.75;;
45964;Laerm;31671;48.092;11.842;2023-12-22T03:40:15;29.37;27.59;33.47;;
45964;Laerm;31671;48.092;11.842;2023-12-22T03:42:41;29.68;27.78;38.59;;
45964;Laerm;31671;48.092;11.842;2023-12-22T03:45:07;29.59;27.97;43.00;;
45964;Laerm;31671;48.092;11.842;2023-12-22T03:47:33;29.33;27.75;34.81;;
45964;Laerm;31671;48.092;11.842;2023-12-22T03:49:58;29.63;27.60;42.46;;
45964;Laerm;31671;48.092;11.842;2023-12-22T03:52:24;29.37;27.82;33.94;;
45964;Laerm;31671;48.092;11.842;2023-12-22T03:54:50;29.09;27.64;33.91;;
45964;Laerm;31671;48.092;11.842;2023-12-22T03:57:15;29.21;27.70;33.15;;
45964;Laerm;31671;48.092;11.842;2023-12-22T03:59:41;29.16;27.63;34.08;;
45964;Laerm;31671;48.092;11.842;2023-12-22T04:02:07;29.11;27.54;33.31;;
45964;Laerm;31671;48.092;11.842;2023-12-22T04:04:32;28.96;27.56;33.51;;
45964;Laerm;31671;48.092;11.842;2023-12-22T04:06:58;29.07;27.49;30.44;;
45964;Laerm;31671;48.092;11.842;2023-12-22T04:09:24;29.02;27.76;30.55;;
45964;Laerm;31671;48.092;11.842;2023-12-22T04:11:49;29.18;27.67;34.98;;
45964;Laerm;31671;48.092;11.842;2023-12-22T04:14:15;29.10;27.77;32.52;;
45964;Laerm;31671;48.092;11.842;2023-12-22T04:16:41;29.07;27.69;32.29;;
45964;Laerm;31671;48.092;11.842;2023-12-22T04:19:06;29.27;27.76;45.64;;
45964;Laerm;31671;48.092;11.842;2023-12-22T04:21:32;29.04;27.59;34.16;;
45964;Laerm;31671;48.092;11.842;2023-12-22T04:23:57;29.52;27.76;44.96;;
45964;Laerm;31671;48.092;11.842;2023-12-22T04:26:23;40.77;27.69;71.05;;
45964;Laerm;31671;48.092;11.842;2023-12-22T04:28:49;30.42;27.66;50.04;;
45964;Laerm;31671;48.092;11.842;2023-12-22T04:31:14;31.10;27.88;56.40;;
45964;Laerm;31671;48.092;11.842;2023-12-22T04:33:40;30.94;27.89;50.94;;
45964;Laerm;31671;48.092;11.842;2023-12-22T04:36:06;31.84;27.69;55.93;;
45964;Laerm;31671;48.092;11.842;2023-12-22T04:38:31;33.93;27.80;55.39;;
45964;Laerm;31671;48.092;11.842;2023-12-22T04:40:57;30.74;27.80;51.79;;
45964;Laerm;31671;48.092;11.842;2023-12-22T04:43:23;30.12;27.72;48.07;;
45964;Laerm;31671;48.092;11.842;2023-12-22T04:45:48;42.69;27.98;65.57;;
45964;Laerm;31671;48.092;11.842;2023-12-22T04:48:14;35.81;27.68;60.85;;
45964;Laerm;31671;48.092;11.842;2023-12-22T04:50:40;30.51;27.80;48.14;;
45964;Laerm;31671;48.092;11.842;2023-12-22T04:53:05;33.80;27.76;53.86;;
45964;Laerm;31671;48.092;11.842;2023-12-22T04:55:31;31.71;28.19;58.68;;
45964;Laerm;31671;48.092;11.842;2023-12-22T04:57:57;37.26;27.76;60.79;;
45964;Laerm;31671;48.092;11.842;2023-12-22T05:00:22;33.57;27.45;53.90;;
45964;Laerm;31671;48.092;11.842;2023-12-22T05:02:48;43.58;28.10;66.13;;
45964;Laerm;31671;48.092;11.842;2023-12-22T05:05:14;36.88;28.02;64.07;;
45964;Laerm;31671;48.092;11.842;2023-12-22T05:07:39;32.17;27.85;58.71;;
45964;Laerm;31671;48.092;11.842;2023-12-22T05:10:05;30.80;27.55;52.88;;
45964;Laerm;31671;48.092;11.842;2023-12-22T05:12:31;36.66;27.73;56.95;;
45964;Laerm;31671;48.092;11.842;2023-12-22T05:14:57;51.06;27.36;75.88;;
45964;Laerm;31671;48.092;11.842;2023-12-22T05:17:23;45.92;28.06;70.18;;
45964;Laerm;31671;48.092;11.842;2023-12-22T05:19:48;31.06;28.09;49.30;;
45964;Laerm;31671;48.092;11.842;2023-12-22T05:22:14;54.10;28.12;76.23;;
45964;Laerm;31671;48.092;11.842;2023-12-22T05:24:40;36.12;28.14;60.42;;
45964;Laerm;31671;48.092;11.842;2023-12-22T05:27:06;31.54;28.25;50.20;;
45964;Laerm;31671;48.092;11.842;2023-12-22T05:29:32;41.90;28.59;62.38;;
45964;Laerm;31671;48.092;11.842;2023-12-22T05:31:57;43.43;28.01;67.94;;
45964;Laerm;31671;48.092;11.842;2023-12-22T05:34:23;34.24;28.07;56.61;;
45964;Laerm;31671;48.092;11.842;2023-12-22T05:36:49;33.77;27.95;58.28;;
45964;Laerm;31671;48.092;11.842;2023-12-22T05:39:14;37.21;28.17;66.21;;
45964;Laerm;31671;48.092;11.842;2023-12-22T05:41:40;39.14;28.30;66.36;;
45964;Laerm;31671;48.092;11.842;2023-12-22T05:44:06;52.08;28.11;75.24;;
45964;Laerm;31671;48.092;11.842;2023-12-22T05:46:35;41.95;28.29;64.78;;
45964;Laerm;31671;48.092;11.842;2023-12-22T05:49:01;47.22;28.41;69.61;;
45964;Laerm;31671;48.092;11.842;2023-12-22T05:51:26;37.99;28.38;64.03;;
45964;Laerm;31671;48.092;11.842;2023-12-22T05:53:52;39.09;28.25;60.60;;
45964;Laerm;31671;48.092;11.842;2023-12-22T05:56:18;46.88;28.29;74.49;;
45964;Laerm;31671;48.092;11.842;2023-12-22T05:58:44;44.01;28.27;67.18;;
45964;Laerm;31671;48.092;11.842;2023-12-22T06:01:14;43.41;28.57;70.79;;
45964;Laerm;31671;48.092;11.842;2023-12-22T06:03:39;49.19;28.59;73.58;;
45964;Laerm;31671;48.092;11.842;2023-12-22T06:06:05;38.75;28.16;64.96;;
45964;Laerm;31671;48.092;11.842;2023-12-22T06:08:31;31.11;28.15;52.53;;
45964;Laerm;31671;48.092;11.842;2023-12-22T06:10:56;29.93;28.20;42.08;;
45964;Laerm;31671;48.092;11.842;2023-12-22T06:13:22;38.39;28.50;65.28;;
45964;Laerm;31671;48.092;11.842;2023-12-22T06:15:48;41.26;28.65;65.86;;
45964;Laerm;31671;48.092;11.842;2023-12-22T06:18:13;37.32;28.47;60.59;;
45964;Laerm;31671;48.092;11.842;2023-12-22T06:20:39;43.70;28.54;70.49;;
45964;Laerm;31671;48.092;11.842;2023-12-22T06:23:05;44.14;28.37;66.57;;
45964;Laerm;31671;48.092;11.842;2023-12-22T06:25:30;38.99;28.01;63.05;;
45964;Laerm;31671;48.092;11.842;2023-12-22T06:27:56;34.67;28.29;62.85;;
45964;Laerm;31671;48.092;11.842;2023-12-22T06:30:22;44.38;27.97;77.05;;
45964;Laerm;31671;48.092;11.842;2023-12-22T06:32:47;30.60;27.92;51.11;;
45964;Laerm;31671;48.092;11.842;2023-12-22T06:35:13;31.39;27.86;56.00;;
45964;Laerm;31671;48.092;11.842;2023-12-22T06:37:39;35.93;28.01;64.05;;
45964;Laerm;31671;48.092;11.842;2023-12-22T06:40:04;32.08;27.96;58.85;;
45964;Laerm;31671;48.092;11.842;2023-12-22T06:42:30;31.94;27.94;55.06;;
45964;Laerm;31671;48.092;11.842;2023-12-22T06:44:56;31.98;27.95;60.57;;
45964;Laerm;31671;48.092;11.842;2023-12-22T06:47:22;31.91;28.04;58.53;;
45964;Laerm;31671;48.092;11.842;2023-12-22T06:49:47;30.36;27.99;47.89;;
45964;Laerm;31671;48.092;11.842;2023-12-22T06:52:13;29.79;27.98;35.74;;
45964;Laerm;31671;48.092;11.842;2023-12-22T06:54:39;30.11;27.80;54.02;;
45964;Laerm;31671;48.092;11.842;2023-12-22T06:57:04;31.20;27.69;54.78;;
45964;Laerm;31671;48.092;11.842;2023-12-22T06:59:30;29.55;28.01;34.87;;
45964;Laerm;31671;48.092;11.842;2023-12-22T07:01:56;31.79;27.89;56.10;;
45964;Laerm;31671;48.092;11.842;2023-12-22T07:04:21;29.52;27.84;34.35;;
45964;Laerm;31671;48.092;11.842;2023-12-22T07:06:47;29.36;27.73;35.50;;
45964;Laerm;31671;48.092;11.842;2023-12-22T07:11:42;29.61;27.84;37.09;;
45964;Laerm;31671;48.092;11.842;2023-12-22T07:14:08;31.56;27.67;53.82;;
45964;Laerm;31671;48.092;11.842;2023-12-22T07:16:34;42.55;28.01;63.92;;
45964;Laerm;31671;48.092;11.842;2023-12-22T07:18:59;30.77;27.66;47.84;;
45964;Laerm;31671;48.092;11.842;2023-12-22T07:21:25;42.95;27.82;74.86;;
45964;Laerm;31671;48.092;11.842;2023-12-22T07:23:51;34.45;28.09;62.92;;
45964;Laerm;31671;48.092;11.842;2023-12-22T07:26:17;43.37;28.30;67.62;;
45964;Laerm;31671;48.092;11.842;2023-12-22T07:28:46;52.40;28.64;74.25;;
45964;Laerm;31671;48.092;11.842;2023-12-22T07:31:12;44.65;29.56;67.30;;
45964;Laerm;31671;48.092;11.842;2023-12-22T07:33:37;49.15;29.24;81.24;;
45964;Laerm;31671;48.092;11.842;2023-12-22T07:36:03;46.98;29.30;69.40;;
45964;Laerm;31671;48.092;11.842;2023-12-22T07:38:29;43.06;28.49;66.17;;
45964;Laerm;31671;48.092;11.842;2023-12-22T07:40:55;42.81;28.72;67.00;;
45964;Laerm;31671;48.092;11.842;2023-12-22T07:45:46;32.41;28.39;51.15;;
45964;Laerm;31671;48.092;11.842;2023-12-22T07:48:11;31.81;28.49;49.18;;
45964;Laerm;31671;48.092;11.842;2023-12-22T07:50:37;53.74;29.61;89.78;;
45964;Laerm;31671;48.092;11.842;2023-12-22T07:53:03;36.13;28.88;56.23;;
45964;Laerm;31671;48.092;11.842;2023-12-22T07:55:29;34.28;28.67;55.37;;
45964;Laerm;31671;48.092;11.842;2023-12-22T07:57:54;37.11;27.96;61.10;;
45964;Laerm;31671;48.092;11.842;2023-12-22T08:00:20;36.72;27.89;60.88;;
45964;Laerm;31671;48.092;11.842;2023-12-22T08:02:46;31.16;28.21;59.07;;
45964;Laerm;31671;48.092;11.842;2023-12-22T08:05:12;30.38;28.24;44.55;;
45964;Laerm;31671;48.092;11.842;2023-12-22T08:07:38;30.30;28.08;37.49;;
45964;Laerm;31671;48.092;11.842;2023-12-22T08:10:04;30.38;27.78;44.87;;
45964;Laerm;31671;48.092;11.842;2023-12-22T08:12:29;35.56;28.21;58.40;;
45964;Laerm;31671;48.092;11.842;2023-12-22T08:14:55;44.57;29.60;65.20;;
45964;Laerm;31671;48.092;11.842;2023-12-22T08:17:21;32.72;28.30;56.36;;
45964;Laerm;31671;48.092;11.842;2023-12-22T08:19:46;30.91;28.22;46.21;;
45964;Laerm;31671;48.092;11.842;2023-12-22T08:22:12;33.56;28.34;57.12;;
45964;Laerm;31671;48.092;11.842;2023-12-22T08:24:38;30.55;28.02;43.47;;
45964;Laerm;31671;48.092;11.842;2023-12-22T08:27:04;30.54;28.06;49.74;;
45964;Laerm;31671;48.092;11.842;2023-12-22T08:29:29;30.08;28.17;43.69;;
45964;Laerm;31671;48.092;11.842;2023-12-22T08:31:55;29.99;28.37;36.22;;
45964;Laerm;31671;48.092;11.842;2023-12-22T08:34:21;30.22;27.94;40.81;;
45964;Laerm;31671;48.092;11.842;2023-12-22T08:36:46;38.65;27.87;72.13;;
45964;Laerm;31671;48.092;11.842;2023-12-22T08:39:12;30.99;28.26;53.47;;
45964;Laerm;31671;48.092;11.842;2023-12-22T08:41:38;33.88;28.03;62.44;;
45964;Laerm;31671;48.092;11.842;2023-12-22T08:44:04;36.28;28.27;66.39;;
45964;Laerm;31671;48.092;11.842;2023-12-22T08:46:30;30.65;27.99;45.30;;
45964;Laerm;31671;48.092;11.842;2023-12-22T08:48:55;33.47;28.14;61.64;;
45964;Laerm;31671;48.092;11.842;2023-12-22T08:51:21;34.83;28.41;58.68;;
45964;Laerm;31671;48.092;11.842;2023-12-22T08:53:47;35.79;28.14;63.76;;
45964;Laerm;31671;48.092;11.842;2023-12-22T08:56:12;36.49;27.99;63.67;;
45964;Laerm;31671;48.092;11.842;2023-12-22T08:58:38;36.02;28.20;59.71;;
45964;Laerm;31671;48.092;11.842;2023-12-22T09:01:04;34.30;28.19;60.18;;
45964;Laerm;31671;48.092;11.842;2023-12-22T09:03:31;41.47;28.55;71.56;;
45964;Laerm;31671;48.092;11.842;2023-12-22T09:05:57;40.63;28.29;67.61;;
45964;Laerm;31671;48.092;11.842;2023-12-22T09:08:23;47.49;27.92;73.02;;
45964;Laerm;31671;48.092;11.842;2023-12-22T09:10:48;37.14;27.92;60.09;;
45964;Laerm;31671;48.092;11.842;2023-12-22T09:13:14;40.69;28.11;63.26;;
45964;Laerm;31671;48.092;11.842;2023-12-22T09:15:40;45.21;28.31;77.67;;
45964;Laerm;31671;48.092;11.842;2023-12-22T09:18:05;42.27;28.20;67.18;;
45964;Laerm;31671;48.092;11.842;2023-12-22T09:20:31;39.41;28.18;61.27;;
45964;Laerm;31671;48.092;11.842;2023-12-22T09:22:57;41.70;27.98;66.73;;
45964;Laerm;31671;48.092;11.842;2023-12-22T09:25:23;46.16;28.69;78.12;;
45964;Laerm;31671;48.092;11.842;2023-12-22T09:27:49;50.75;28.74;73.60;;
45964;Laerm;31671;48.092;11.842;2023-12-22T09:30:15;38.73;28.39;59.41;;
45964;Laerm;31671;48.092;11.842;2023-12-22T09:32:40;47.61;28.57;70.16;;
45964;Laerm;31671;48.092;11.842;2023-12-22T09:35:06;38.99;28.38;65.18;;
45964;Laerm;31671;48.092;11.842;2023-12-22T09:37:32;38.81;28.16;61.38;;
45964;Laerm;31671;48.092;11.842;2023-12-22T09:39:57;35.46;28.40;62.98;;
45964;Laerm;31671;48.092;11.842;2023-12-22T09:42:23;40.60;28.29;62.87;;
45964;Laerm;31671;48.092;11.842;2023-12-22T09:44:50;33.96;28.38;59.13;;
45964;Laerm;31671;48.092;11.842;2023-12-22T09:47:18;35.10;28.30;60.46;;
45964;Laerm;31671;48.092;11.842;2023-12-22T09:49:45;31.53;28.18;49.99;;
45964;Laerm;31671;48.092;11.842;2023-12-22T09:52:11;32.98;28.36;58.69;;
45964;Laerm;31671;48.092;11.842;2023-12-22T09:54:37;41.44;28.53;68.53;;
45964;Laerm;31671;48.092;11.842;2023-12-22T09:57:04;31.39;28.12;54.32;;
45964;Laerm;31671;48.092;11.842;2023-12-22T09:59:30;45.24;28.55;66.89;;
45964;Laerm;31671;48.092;11.842;2023-12-22T10:01:55;42.23;28.51;63.25;;
45964;Laerm;31671;48.092;11.842;2023-12-22T10:04:22;35.09;28.28;59.95;;
45964;Laerm;31671;48.092;11.842;2023-12-22T10:06:48;42.95;28.04;67.37;;
45964;Laerm;31671;48.092;11.842;2023-12-22T10:09:15;40.08;28.34;64.01;;
45964;Laerm;31671;48.092;11.842;2023-12-22T10:11:43;32.68;28.40;54.72;;
45964;Laerm;31671;48.092;11.842;2023-12-22T10:14:08;37.13;27.81;68.33;;
45964;Laerm;31671;48.092;11.842;2023-12-22T10:16:34;31.52;27.99;52.56;;
45964;Laerm;31671;48.092;11.842;2023-12-22T10:19:01;47.75;28.76;74.16;;
45964;Laerm;31671;48.092;11.842;2023-12-22T10:21:26;44.65;27.91;71.19;;
45964;Laerm;31671;48.092;11.842;2023-12-22T10:23:52;34.77;28.64;57.57;;
45964;Laerm;31671;48.092;11.842;2023-12-22T10:26:18;39.16;28.46;61.55;;
45964;Laerm;31671;48.092;11.842;2023-12-22T10:28:43;36.88;28.73;60.59;;
45964;Laerm;31671;48.092;11.842;2023-12-22T10:31:12;41.03;28.66;65.14;;
45964;Laerm;31671;48.092;11.842;2023-12-22T10:33:37;35.97;28.73;65.55;;
45964;Laerm;31671;48.092;11.842;2023-12-22T10:36:03;41.66;28.41;66.52;;
45964;Laerm;31671;48.092;11.842;2023-12-22T10:38:32;46.96;28.64;72.62;;
45964;Laerm;31671;48.092;11.842;2023-12-22T10:40:58;36.73;28.72;57.21;;
45964;Laerm;31671;48.092;11.842;2023-12-22T10:43:24;38.47;28.11;62.90;;
45964;Laerm;31671;48.092;11.842;2023-12-22T10:45:51;30.60;27.91;51.60;;
45964;Laerm;31671;48.092;11.842;2023-12-22T10:48:17;38.43;28.19;67.64;;
45964;Laerm;31671;48.092;11.842;2023-12-22T10:50:43;32.67;28.12;56.07;;
45964;Laerm;31671;48.092;11.842;2023-12-22T10:53:10;30.74;28.25;45.35;;
45964;Laerm;31671;48.092;11.842;2023-12-22T10:55:36;34.16;28.43;57.95;;
45964;Laerm;31671;48.092;11.842;2023-12-22T10:58:04;32.21;28.59;55.03;;
45964;Laerm;31671;48.092;11.842;2023-12-22T11:00:31;31.63;28.12;54.91;;
45964;Laerm;31671;48.092;11.842;2023-12-22T11:02:58;33.28;28.10;58.83;;
45964;Laerm;31671;48.092;11.842;2023-12-22T11:05:26;29.98;27.93;45.50;;
45964;Laerm;31671;48.092;11.842;2023-12-22T11:07:53;29.85;27.83;36.34;;
45964;Laerm;31671;48.092;11.842;2023-12-22T11:10:20;32.75;27.81;56.28;;
45964;Laerm;31671;48.092;11.842;2023-12-22T11:12:46;31.18;28.01;53.39;;
45964;Laerm;31671;48.092;11.842;2023-12-22T11:15:12;30.48;28.02;41.42;;
45964;Laerm;31671;48.092;11.842;2023-12-22T11:17:39;37.55;28.02;62.09;;
45964;Laerm;31671;48.092;11.842;2023-12-22T11:20:05;44.92;28.24;64.04;;
45964;Laerm;31671;48.092;11.842;2023-12-22T11:22:31;37.49;28.18;59.23;;
45964;Laerm;31671;48.092;11.842;2023-12-22T11:24:57;40.68;28.05;71.22;;
45964;Laerm;31671;48.092;11.842;2023-12-22T11:27:23;39.92;28.38;63.01;;
45964;Laerm;31671;48.092;11.842;2023-12-22T11:29:51;44.83;28.82;74.64;;
45964;Laerm;31671;48.092;11.842;2023-12-22T11:32:17;45.46;28.55;72.68;;
45964;Laerm;31671;48.092;11.842;2023-12-22T11:34:43;43.02;28.23;67.47;;
45964;Laerm;31671;48.092;11.842;2023-12-22T11:37:10;39.42;28.09;63.98;;
45964;Laerm;31671;48.092;11.842;2023-12-22T11:39:36;51.10;28.18;76.55;;
45964;Laerm;31671;48.092;11.842;2023-12-22T11:42:01;41.10;28.24;65.33;;
45964;Laerm;31671;48.092;11.842;2023-12-22T11:44:28;47.25;28.63;68.99;;
45964;Laerm;31671;48.092;11.842;2023-12-22T11:47:03;50.92;28.17;74.79;;
45964;Laerm;31671;48.092;11.842;2023-12-22T11:49:32;38.79;28.03;64.50;;
45964;Laerm;31671;48.092;11.842;2023-12-22T11:51:58;38.00;28.06;63.65;;
45964;Laerm;31671;48.092;11.842;2023-12-22T11:54:43;46.30;28.65;77.19;;
45964;Laerm;31671;48.092;11.842;2023-12-22T11:59:53;46.46;28.39;77.49;;
45964;Laerm;31671;48.092;11.842;2023-12-22T12:02:19;40.82;28.09;61.44;;
45964;Laerm;31671;48.092;11.842;2023-12-22T12:04:47;45.59;28.95;68.25;;
45964;Laerm;31671;48.092;11.842;2023-12-22T12:09:57;34.74;28.12;58.41;;
45964;Laerm;31671;48.092;11.842;2023-12-22T12:12:22;34.49;28.05;55.15;;
45964;Laerm;31671;48.092;11.842;2023-12-22T12:14:48;48.09;28.23;72.24;;
45964;Laerm;31671;48.092;11.842;2023-12-22T12:17:19;44.51;27.96;68.86;;
45964;Laerm;31671;48.092;11.842;2023-12-22T12:19:45;47.43;27.99;68.85;;
45964;Laerm;31671;48.092;11.842;2023-12-22T12:22:12;41.51;28.29;66.88;;
45964;Laerm;31671;48.092;11.842;2023-12-22T12:24:39;49.28;28.30;73.37;;
45964;Laerm;31671;48.092;11.842;2023-12-22T12:27:04;51.41;28.00;73.03;;
45964;Laerm;31671;48.092;11.842;2023-12-22T12:29:31;44.33;28.61;74.07;;
45964;Laerm;31671;48.092;11.842;2023-12-22T12:32:04;40.31;28.24;64.85;;
45964;Laerm;31671;48.092;11.842;2023-12-22T12:34:30;37.11;28.22;58.86;;
45964;Laerm;31671;48.092;11.842;2023-12-22T12:36:56;39.98;28.25;64.52;;
45964;Laerm;31671;48.092;11.842;2023-12-22T12:39:22;45.14;28.35;68.88;;
45964;Laerm;31671;48.092;11.842;2023-12-22T12:41:50;43.17;28.14;68.30;;
45964;Laerm;31671;48.092;11.842;2023-12-22T12:44:18;46.79;28.09;69.08;;
45964;Laerm;31671;48.092;11.842;2023-12-22T12:46:45;43.29;28.19;67.88;;
45964;Laerm;31671;48.092;11.842;2023-12-22T12:49:11;42.31;28.28;67.97;;
45964;Laerm;31671;48.092;11.842;2023-12-22T12:54:03;40.24;28.08;71.71;;
45964;Laerm;31671;48.092;11.842;2023-12-22T12:56:29;45.06;28.20;68.19;;
45964;Laerm;31671;48.092;11.842;2023-12-22T12:58:54;46.63;28.03;71.87;;
45964;Laerm;31671;48.092;11.842;2023-12-22T13:01:20;41.34;28.20;64.38;;
45964;Laerm;31671;48.092;11.842;2023-12-22T13:03:52;37.31;28.01;59.98;;
45964;Laerm;31671;48.092;11.842;2023-12-22T13:06:18;33.04;27.96;54.95;;
45964;Laerm;31671;48.092;11.842;2023-12-22T13:08:47;39.90;27.98;64.20;;
45964;Laerm;31671;48.092;11.842;2023-12-22T13:11:13;44.24;27.99;66.45;;
45964;Laerm;31671;48.092;11.842;2023-12-22T13:13:42;34.52;28.10;56.77;;
45964;Laerm;31671;48.092;11.842;2023-12-22T13:16:09;47.15;28.00;71.43;;
45964;Laerm;31671;48.092;11.842;2023-12-22T13:18:35;46.52;27.94;75.44;;
45964;Laerm;31671;48.092;11.842;2023-12-22T13:21:01;45.68;28.18;68.98;;
45964;Laerm;31671;48.092;11.842;2023-12-22T13:23:27;31.48;28.17;51.13;;
45964;Laerm;31671;48.092;11.842;2023-12-22T13:25:53;41.78;28.19;60.84;;
45964;Laerm;31671;48.092;11.842;2023-12-22T13:28:25;48.14;28.38;74.32;;
45964;Laerm;31671;48.092;11.842;2023-12-22T13:30:51;32.62;28.02;56.69;;
45964;Laerm;31671;48.092;11.842;2023-12-22T13:33:16;38.69;28.32;65.45;;
45964;Laerm;31671;48.092;11.842;2023-12-22T13:35:42;35.71;28.09;58.65;;
45964;Laerm;31671;48.092;11.842;2023-12-22T13:38:08;32.10;28.02;55.33;;